createdAt,value
2022-10-11T00:01:02.528Z,3.64
2022-10-11T00:04:04.238Z,3.66
2022-10-11T00:07:05.751Z,3.63
2022-10-11T00:10:08.467Z,3.63
2022-10-11T00:13:09.866Z,3.60
2022-10-11T00:16:12.161Z,3.55
2022-10-11T00:19:13.590Z,3.52
2022-10-11T00:22:15.214Z,3.53
2022-10-11T00:25:16.969Z,3.49
2022-10-11T00:28:18.419Z,3.50
2022-10-11T00:31:20.080Z,3.44
2022-10-11T00:34:21.583Z,3.43
2022-10-11T00:37:22.994Z,3.50
2022-10-11T00:40:24.640Z,3.50
2022-10-11T00:43:28.908Z,3.44
2022-10-11T00:46:31.807Z,3.42
2022-10-11T00:49:36.309Z,3.38
2022-10-11T00:52:41.813Z,3.40
2022-10-11T00:55:59.461Z,3.42
2022-10-11T00:59:04.629Z,3.41
2022-10-11T01:02:07.353Z,3.40
2022-10-11T01:05:28.595Z,3.34
2022-10-11T01:08:31.951Z,3.32
2022-10-11T01:11:36.697Z,3.44
2022-10-11T01:15:09.098Z,3.46
2022-10-11T01:18:21.922Z,3.46
2022-10-11T01:21:45.561Z,3.43
2022-10-11T01:25:05.399Z,3.36
2022-10-11T01:28:36.537Z,3.30
2022-10-11T01:32:19.119Z,3.30
2022-10-11T01:35:45.468Z,3.29
2022-10-11T01:38:52.429Z,3.23
2022-10-11T01:41:57.500Z,3.20
2022-10-11T01:44:59.856Z,3.18
2022-10-11T01:48:08.227Z,3.16
2022-10-11T01:51:09.781Z,3.16
2022-10-11T01:54:23.390Z,3.23
2022-10-11T01:57:54.869Z,3.20
2022-10-11T02:01:30.809Z,3.13
2022-10-11T02:04:45.159Z,3.07
2022-10-11T02:07:59.018Z,3.03
2022-10-11T02:11:09.642Z,3.04
2022-10-11T02:14:24.681Z,3.02
2022-10-11T02:17:31.886Z,2.98
2022-10-11T02:20:37.729Z,2.95
2022-10-11T02:23:45.467Z,2.96
2022-10-11T02:26:50.074Z,2.94
2022-10-11T02:29:54.455Z,2.93
2022-10-11T02:32:58.694Z,2.92
2022-10-11T02:36:03.645Z,2.95
2022-10-11T02:39:17.623Z,2.94
2022-10-11T02:42:27.268Z,3.03
2022-10-11T02:45:44.651Z,3.03
2022-10-11T02:48:46.250Z,2.96
2022-10-11T02:51:47.774Z,2.89
2022-10-11T02:54:49.184Z,2.85
2022-10-11T02:57:50.679Z,2.85
2022-10-11T03:00:52.204Z,2.84
2022-10-11T03:03:53.625Z,2.81
2022-10-11T03:06:55.025Z,2.82
2022-10-11T03:09:56.434Z,2.81
2022-10-11T03:12:57.877Z,2.76
2022-10-11T03:16:03.974Z,2.82
2022-10-11T03:19:05.408Z,2.83
2022-10-11T03:22:06.837Z,2.81
2022-10-11T03:25:08.795Z,2.82
2022-10-11T03:28:10.253Z,2.83
2022-10-11T03:31:12.218Z,2.82
2022-10-11T03:34:13.895Z,2.75
2022-10-11T03:37:15.361Z,2.74
2022-10-11T03:40:17.087Z,2.72
2022-10-11T03:43:18.567Z,2.68
2022-10-11T03:46:20.008Z,2.61
2022-10-11T03:49:21.460Z,2.60
2022-10-11T03:52:22.933Z,2.56
2022-10-11T03:55:24.413Z,2.57
2022-10-11T03:58:25.889Z,2.56
2022-10-11T04:01:27.402Z,2.55
2022-10-11T04:04:28.820Z,2.54
2022-10-11T04:07:30.249Z,2.49
2022-10-11T04:10:31.701Z,2.45
2022-10-11T04:13:33.123Z,2.40
2022-10-11T04:16:34.608Z,2.39
2022-10-11T04:19:36.046Z,2.36
2022-10-11T04:22:37.472Z,2.38
2022-10-11T04:25:39.176Z,2.37
2022-10-11T04:28:40.632Z,2.36
2022-10-11T04:31:42.089Z,2.35
2022-10-11T04:34:43.518Z,2.33
2022-10-11T04:37:44.992Z,2.37
2022-10-11T04:40:46.460Z,2.44
2022-10-11T04:43:48.071Z,2.42
2022-10-11T04:46:49.834Z,2.40
2022-10-11T04:49:51.285Z,2.39
2022-10-11T04:52:52.704Z,2.48
2022-10-11T04:56:05.517Z,2.51
2022-10-11T04:59:07.153Z,2.50
2022-10-11T05:02:08.722Z,2.44
2022-10-11T05:05:10.914Z,2.43
2022-10-11T05:08:12.417Z,2.55
2022-10-11T05:11:16.135Z,2.73
2022-10-11T05:14:17.777Z,2.71
2022-10-11T05:17:19.341Z,2.72
2022-10-11T05:20:20.725Z,2.72
2022-10-11T05:23:22.117Z,2.73
2022-10-11T05:26:25.710Z,2.66
2022-10-11T05:29:27.237Z,2.61
2022-10-11T05:32:28.689Z,2.55
2022-10-11T05:35:30.127Z,2.53
2022-10-11T05:38:31.658Z,2.52
2022-10-11T05:41:33.149Z,2.54
2022-10-11T05:44:34.586Z,2.58
2022-10-11T05:47:36.014Z,2.65
2022-10-11T05:50:38.242Z,2.74
2022-10-11T05:53:39.681Z,2.85
2022-10-11T05:56:41.117Z,2.88
2022-10-11T05:59:42.562Z,2.88
2022-10-11T06:02:44.012Z,2.86
2022-10-11T06:05:45.480Z,2.87
2022-10-11T06:08:48.061Z,2.91
2022-10-11T06:11:49.580Z,2.94
2022-10-11T06:14:51.005Z,2.99
2022-10-11T06:17:52.641Z,3.06
2022-10-11T06:20:54.033Z,3.13
2022-10-11T06:24:00.883Z,3.21
2022-10-11T06:27:02.865Z,3.32
2022-10-11T06:30:05.164Z,3.44
2022-10-11T06:33:06.611Z,3.54
2022-10-11T06:36:12.202Z,3.68
2022-10-11T06:39:13.625Z,3.86
2022-10-11T06:42:15.020Z,4.10
2022-10-11T06:45:16.482Z,4.43
2022-10-11T06:48:17.952Z,4.76
2022-10-11T06:51:21.709Z,5.06
2022-10-11T06:54:23.537Z,5.32
2022-10-11T06:57:24.955Z,5.60
2022-10-11T07:00:26.847Z,5.77
2022-10-11T07:03:30.192Z,6.03
2022-10-11T07:06:32.038Z,6.30
2022-10-11T07:09:34.216Z,6.63
2022-10-11T07:12:35.684Z,7.10
2022-10-11T07:15:37.554Z,7.56
2022-10-11T07:18:39.983Z,7.92
2022-10-11T07:21:41.431Z,8.54
2022-10-11T07:24:42.898Z,9.10
2022-10-11T07:27:44.432Z,9.49
2022-10-11T07:30:46.596Z,9.73
2022-10-11T07:33:48.529Z,9.98
2022-10-11T07:36:49.996Z,10.67
2022-10-11T07:39:51.451Z,11.18
2022-10-11T07:42:52.969Z,11.77
2022-10-11T07:45:54.417Z,12.25
2022-10-11T07:48:56.380Z,12.28
2022-10-11T07:51:57.781Z,12.80
2022-10-11T07:54:59.232Z,13.14
2022-10-11T07:58:00.797Z,13.36
2022-10-11T08:01:02.472Z,13.49
2022-10-11T08:04:04.136Z,13.74
2022-10-11T08:07:06.011Z,13.20
2022-10-11T08:10:08.405Z,12.39
2022-10-11T08:13:09.877Z,11.87
2022-10-11T08:16:12.807Z,11.34
2022-10-11T08:19:14.977Z,11.03
2022-10-11T08:22:16.580Z,11.01
2022-10-11T08:25:18.061Z,10.94
2022-10-11T08:28:19.606Z,10.90
2022-10-11T08:31:21.154Z,10.85
2022-10-11T08:34:22.566Z,10.71
2022-10-11T08:37:23.985Z,10.81
2022-10-11T08:40:25.420Z,11.02
2022-10-11T08:43:47.985Z,11.07
2022-10-11T08:47:00.469Z,11.14
2022-10-11T08:50:03.797Z,11.24
2022-10-11T08:53:18.724Z,11.25
2022-10-11T08:56:21.809Z,11.43
2022-10-11T08:59:35.736Z,11.50
2022-10-11T09:03:07.383Z,11.68
2022-10-11T09:06:19.739Z,11.83
2022-10-11T09:09:23.883Z,11.82
2022-10-11T09:12:38.399Z,11.84
2022-10-11T09:15:55.632Z,12.07
2022-10-11T09:18:57.006Z,12.18
2022-10-11T09:22:35.725Z,12.33
2022-10-11T09:25:51.315Z,12.40
2022-10-11T09:29:18.583Z,12.45
2022-10-11T09:32:20.861Z,12.56
2022-10-11T09:35:22.507Z,12.59
2022-10-11T09:39:00.890Z,12.68
2022-10-11T09:42:07.156Z,12.81
2022-10-11T09:45:14.217Z,13.05
2022-10-11T09:48:20.866Z,13.49
2022-10-11T09:51:25.704Z,14.03
2022-10-11T09:54:42.235Z,14.00
2022-10-11T09:57:54.680Z,14.19
2022-10-11T10:01:06.551Z,14.28
2022-10-11T10:04:12.477Z,14.46
2022-10-11T10:07:15.612Z,14.55
2022-10-11T10:10:35.639Z,14.71
2022-10-11T10:13:52.236Z,14.69
2022-10-11T10:17:21.968Z,14.61
2022-10-11T10:20:30.004Z,14.86
2022-10-11T10:23:34.784Z,15.24
2022-10-11T10:26:36.227Z,15.12
2022-10-11T10:29:37.772Z,15.00
2022-10-11T10:32:51.349Z,15.01
2022-10-11T10:35:58.292Z,14.93
2022-10-11T10:39:42.654Z,15.09
2022-10-11T10:42:44.236Z,15.26
2022-10-11T10:46:09.805Z,15.58
2022-10-11T10:49:48.383Z,15.82
2022-10-11T10:53:06.286Z,15.88
2022-10-11T10:56:34.444Z,16.54
2022-10-11T11:00:02.344Z,16.82
2022-10-11T11:03:09.129Z,16.57
2022-10-11T11:06:26.492Z,16.32
2022-10-11T11:10:13.015Z,16.31
2022-10-11T11:13:34.808Z,16.16
2022-10-11T11:16:49.814Z,15.80
2022-10-11T11:20:08.953Z,15.87
2022-10-11T11:23:46.932Z,15.33
2022-10-11T11:27:34.210Z,14.69
2022-10-11T11:30:56.645Z,14.32
2022-10-11T11:34:23.168Z,13.92
2022-10-11T11:37:43.425Z,13.73
2022-10-11T11:40:52.659Z,13.74
2022-10-11T11:44:06.437Z,14.07
2022-10-11T11:47:27.196Z,14.59
2022-10-11T11:50:36.912Z,14.85
2022-10-11T11:54:02.048Z,14.87
2022-10-11T11:57:12.498Z,15.09
2022-10-11T12:00:19.637Z,15.21
2022-10-11T12:03:29.152Z,15.50
2022-10-11T12:06:33.237Z,15.49
2022-10-11T12:09:35.511Z,15.66
2022-10-11T12:12:37.840Z,15.77
2022-10-11T12:15:39.363Z,15.90
2022-10-11T12:18:56.096Z,15.85
2022-10-11T12:22:38.022Z,15.79
2022-10-11T12:25:42.091Z,15.91
2022-10-11T12:28:43.539Z,15.95
2022-10-11T12:31:50.539Z,15.92
2022-10-11T12:35:35.936Z,16.19
2022-10-11T12:38:38.584Z,16.02
2022-10-11T12:41:49.151Z,15.73
2022-10-11T12:45:16.989Z,15.27
2022-10-11T12:48:45.891Z,15.30
2022-10-11T12:51:58.070Z,15.35
2022-10-11T12:55:17.778Z,15.03
2022-10-11T12:58:28.316Z,14.82
2022-10-11T13:01:47.481Z,14.69
2022-10-11T13:04:48.992Z,14.43
2022-10-11T13:07:53.048Z,14.22
2022-10-11T13:10:56.682Z,14.21
2022-10-11T13:14:09.642Z,14.22
2022-10-11T13:17:16.998Z,14.22
2022-10-11T13:20:23.637Z,14.54
2022-10-11T13:23:37.640Z,14.60
2022-10-11T13:26:39.809Z,14.94
2022-10-11T13:29:46.714Z,15.52
2022-10-11T13:32:48.379Z,15.60
2022-10-11T13:35:51.068Z,15.88
2022-10-11T13:38:56.310Z,15.63
2022-10-11T13:41:59.538Z,15.84
2022-10-11T13:45:01.870Z,15.45
2022-10-11T13:48:03.680Z,15.82
2022-10-11T13:51:17.505Z,15.90
2022-10-11T13:54:18.953Z,15.85
2022-10-11T13:57:22.617Z,15.75
2022-10-11T14:00:28.396Z,15.84
2022-10-11T14:03:42.040Z,15.93
2022-10-11T14:06:47.832Z,16.04
2022-10-11T14:09:49.474Z,16.03
2022-10-11T14:13:02.932Z,15.99
2022-10-11T14:16:36.890Z,15.55
2022-10-11T14:19:39.581Z,15.63
2022-10-11T14:22:41.061Z,15.69
2022-10-11T14:25:42.512Z,15.97
2022-10-11T14:28:43.950Z,16.18
2022-10-11T14:31:45.615Z,15.93
2022-10-11T14:34:48.899Z,15.61
2022-10-11T14:37:50.428Z,15.52
2022-10-11T14:40:51.839Z,14.97
2022-10-11T14:43:53.258Z,14.83
2022-10-11T14:46:55.069Z,14.43
2022-10-11T14:49:56.645Z,14.09
2022-10-11T14:52:58.194Z,13.87
2022-10-11T14:55:59.680Z,13.74
2022-10-11T14:59:01.219Z,13.71
2022-10-11T15:02:05.644Z,13.70
2022-10-11T15:05:07.517Z,14.16
2022-10-11T15:08:09.040Z,14.07
2022-10-11T15:11:12.867Z,14.33
2022-10-11T15:14:14.547Z,14.50
2022-10-11T15:17:15.994Z,14.51
2022-10-11T15:20:21.445Z,14.66
2022-10-11T15:23:22.825Z,14.72
2022-10-11T15:26:26.702Z,14.80
2022-10-11T15:29:28.150Z,14.78
2022-10-11T15:32:29.546Z,14.69
2022-10-11T15:35:31.123Z,14.48
2022-10-11T15:38:32.948Z,14.48
2022-10-11T15:41:35.917Z,14.63
2022-10-11T15:44:37.353Z,14.58
2022-10-11T15:47:38.973Z,14.29
2022-10-11T15:50:40.448Z,14.01
2022-10-11T15:53:41.912Z,13.79
2022-10-11T15:56:43.338Z,13.63
2022-10-11T15:59:44.749Z,13.58
2022-10-11T16:02:46.152Z,13.47
2022-10-11T16:05:47.691Z,13.41
2022-10-11T16:08:49.088Z,13.20
2022-10-11T16:11:50.572Z,13.09
2022-10-11T16:14:52.559Z,13.01
2022-10-11T16:17:53.968Z,12.85
2022-10-11T16:20:55.410Z,12.56
2022-10-11T16:23:56.983Z,12.35
2022-10-11T16:27:08.717Z,12.14
2022-10-11T16:30:12.135Z,11.93
2022-10-11T16:33:13.534Z,11.79
2022-10-11T16:36:17.651Z,11.66
2022-10-11T16:39:19.120Z,11.45
2022-10-11T16:42:20.575Z,11.29
2022-10-11T16:45:22.017Z,11.20
2022-10-11T16:48:23.469Z,11.04
2022-10-11T16:51:25.000Z,10.84
2022-10-11T16:54:26.852Z,10.61
2022-10-11T16:57:28.391Z,10.37
2022-10-11T17:00:31.332Z,10.19
2022-10-11T17:03:32.869Z,10.05
2022-10-11T17:06:34.309Z,9.85
2022-10-11T17:09:39.108Z,9.72
2022-10-11T17:12:46.454Z,9.60
2022-10-11T17:15:50.630Z,9.49
2022-10-11T17:18:52.094Z,9.43
2022-10-11T17:21:53.548Z,9.41
2022-10-11T17:24:54.975Z,9.35
2022-10-11T17:27:57.369Z,9.27
2022-10-11T17:30:59.269Z,9.25
2022-10-11T17:34:00.837Z,9.11
2022-10-11T17:37:02.355Z,8.98
2022-10-11T17:40:04.655Z,8.85
2022-10-11T17:43:06.267Z,8.72
2022-10-11T17:46:09.018Z,8.62
2022-10-11T17:49:12.120Z,8.63
2022-10-11T17:52:14.766Z,8.51
2022-10-11T17:55:16.190Z,8.44
2022-10-11T17:58:18.113Z,8.39
2022-10-11T18:01:22.637Z,8.28
2022-10-11T18:04:24.500Z,8.15
2022-10-11T18:07:25.907Z,8.00
2022-10-11T18:10:27.680Z,7.88
2022-10-11T18:13:29.344Z,7.76
2022-10-11T18:16:31.759Z,7.62
2022-10-11T18:19:33.188Z,7.53
2022-10-11T18:22:34.794Z,7.41
2022-10-11T18:25:36.230Z,7.36
2022-10-11T18:28:38.160Z,7.28
2022-10-11T18:31:40.293Z,7.21
2022-10-11T18:34:42.719Z,7.12
2022-10-11T18:37:44.114Z,7.04
2022-10-11T18:40:47.270Z,6.98
2022-10-11T18:43:57.318Z,6.98
2022-10-11T18:46:58.784Z,7.00
2022-10-11T18:50:00.198Z,6.95
2022-10-11T18:53:01.899Z,6.88
2022-10-11T18:56:05.973Z,6.88
2022-10-11T18:59:07.609Z,6.84
2022-10-11T19:02:11.560Z,6.79
2022-10-11T19:05:13.069Z,6.80
2022-10-11T19:08:14.477Z,6.76
2022-10-11T19:11:17.425Z,6.73
2022-10-11T19:14:22.849Z,6.76
2022-10-11T19:17:24.506Z,6.83
2022-10-11T19:20:25.904Z,6.88
2022-10-11T19:23:27.579Z,6.80
2022-10-11T19:26:34.668Z,6.73
2022-10-11T19:29:36.052Z,6.66
2022-10-11T19:32:37.434Z,6.64
2022-10-11T19:35:38.820Z,6.72
2022-10-11T19:38:46.794Z,6.64
2022-10-11T19:41:48.564Z,6.60
2022-10-11T19:44:49.929Z,6.56
2022-10-11T19:47:51.332Z,6.53
2022-10-11T19:50:52.815Z,6.48
2022-10-11T19:54:02.058Z,6.38
2022-10-11T19:57:03.600Z,6.33
2022-10-11T20:00:05.396Z,6.23
2022-10-11T20:03:06.762Z,6.21
2022-10-11T20:06:09.295Z,6.16
2022-10-11T20:09:28.595Z,6.11
2022-10-11T20:12:31.554Z,6.03
2022-10-11T20:15:36.913Z,5.94
2022-10-11T20:18:38.865Z,5.88
2022-10-11T20:21:40.254Z,5.84
2022-10-11T20:24:41.641Z,5.77
2022-10-11T20:27:43.035Z,5.68
2022-10-11T20:30:44.460Z,5.69
2022-10-11T20:33:47.301Z,5.64
2022-10-11T20:36:49.420Z,5.63
2022-10-11T20:39:51.373Z,5.56
2022-10-11T20:42:52.749Z,5.50
2022-10-11T20:45:59.088Z,5.45
2022-10-11T20:49:11.304Z,5.41
2022-10-11T20:52:12.820Z,5.40
2022-10-11T20:55:14.346Z,5.36
2022-10-11T20:58:16.507Z,5.32
2022-10-11T21:01:32.914Z,5.25
2022-10-11T21:04:34.400Z,5.21
2022-10-11T21:07:36.122Z,5.20
2022-10-11T21:10:38.186Z,5.18
2022-10-11T21:13:40.633Z,5.18
2022-10-11T21:16:42.058Z,5.09
2022-10-11T21:19:43.467Z,5.06
2022-10-11T21:22:44.895Z,5.06
2022-10-11T21:25:46.275Z,5.01
2022-10-11T21:28:47.847Z,4.98
2022-10-11T21:31:49.251Z,4.94
2022-10-11T21:34:50.632Z,4.89
2022-10-11T21:37:52.046Z,4.91
2022-10-11T21:40:53.445Z,4.88
2022-10-11T21:43:54.833Z,4.86
2022-10-11T21:47:11.507Z,4.83
2022-10-11T21:50:13.275Z,4.79
2022-10-11T21:53:14.660Z,4.85
2022-10-11T21:56:16.349Z,4.82
2022-10-11T21:59:17.892Z,4.78
2022-10-11T22:02:19.295Z,4.78
2022-10-11T22:05:21.083Z,4.76
2022-10-11T22:08:22.775Z,4.78
2022-10-11T22:11:25.018Z,4.74
2022-10-11T22:14:26.778Z,4.68
2022-10-11T22:17:28.189Z,4.66
2022-10-11T22:20:32.023Z,4.64
2022-10-11T22:23:34.487Z,4.58
2022-10-11T22:26:35.909Z,4.55
2022-10-11T22:29:37.301Z,4.54
2022-10-11T22:32:38.700Z,4.51
2022-10-11T22:35:40.084Z,4.54
2022-10-11T22:38:43.145Z,4.51
2022-10-11T22:41:44.572Z,4.45
2022-10-11T22:44:45.976Z,4.49
2022-10-11T22:47:47.364Z,4.44
2022-10-11T22:50:48.785Z,4.46
2022-10-11T22:53:50.246Z,4.46
2022-10-11T22:56:51.761Z,4.45
2022-10-11T22:59:53.152Z,4.48
2022-10-11T23:02:54.548Z,4.45
2022-10-11T23:05:57.496Z,4.49
2022-10-11T23:08:58.913Z,4.57
2022-10-11T23:12:00.325Z,4.61
2022-10-11T23:15:01.746Z,4.64
2022-10-11T23:18:03.202Z,4.60
2022-10-11T23:21:05.383Z,4.57
2022-10-11T23:24:07.033Z,4.51
2022-10-11T23:27:08.442Z,4.46
2022-10-11T23:30:10.782Z,4.40
2022-10-11T23:33:12.178Z,4.35
2022-10-11T23:36:25.209Z,4.41
2022-10-11T23:39:26.666Z,4.51
2022-10-11T23:42:28.069Z,4.53
2022-10-11T23:45:29.471Z,4.56
2022-10-11T23:48:30.894Z,4.59
2022-10-11T23:51:32.342Z,4.69
2022-10-11T23:54:33.748Z,4.70
2022-10-11T23:57:35.307Z,4.70
